ACA317 CYUL-CYYC
Flight info
| Callsign | ACA317 |
|---|---|
| Flight time | 4h 8m |
| Altitude | 36000 |
| Route | KESKA DCT BIPKO DCT IPSAK DCT OMEGI DCT RADEN DCT SPALD DCT LACTO DCT LEATS DCT ILADA BIRKO6 |
| Aircraft | A320/M-SDE2E3FGHIRWXY/LB1 |
Departure
| Time | 2026-04-26 20:31 |
|---|---|
| Airport | Montreal / Pierre Elliott Trudeau International Airport (CYUL) |
Arrival
| Time | 2026-04-27 00:39 |
|---|---|
| Airport | Calgary International Airport (CYYC) |
| Time | Latitude | Longitude | Altitude | Speed | Heading |
|---|---|---|---|---|---|
| 2026-04-26 19:45 | 45.45874 | -73.74747 | 105 ft | 0 kts | 197° |
| 2026-04-26 20:18 | 45.45892 | -73.74739 | 103 ft | 4 kts | 200° |
| 2026-04-26 20:18 | 45.45917 | -73.74724 | 104 ft | 4 kts | 207° |
| 2026-04-26 20:18 | 45.45940 | -73.74705 | 104 ft | 4 kts | 220° |
| 2026-04-26 20:18 | 45.45955 | -73.74677 | 102 ft | 4 kts | 268° |
| 2026-04-26 20:19 | 45.45956 | -73.74668 | 102 ft | 0 kts | 283° |
| 2026-04-26 20:23 | 45.45958 | -73.74680 | 104 ft | 2 kts | 283° |
| 2026-04-26 20:23 | 45.45964 | -73.74714 | 104 ft | 5 kts | 284° |
| 2026-04-26 20:23 | 45.45979 | -73.74769 | 104 ft | 7 kts | 291° |
| 2026-04-26 20:24 | 45.45983 | -73.74819 | 103 ft | 8 kts | 270° |
| 2026-04-26 20:24 | 45.45981 | -73.74945 | 104 ft | 9 kts | 274° |
| 2026-04-26 20:24 | 45.46010 | -73.75035 | 104 ft | 10 kts | 286° |
| 2026-04-26 20:24 | 45.46007 | -73.75138 | 104 ft | 11 kts | 263° |
| 2026-04-26 20:25 | 45.46015 | -73.75254 | 103 ft | 13 kts | 295° |
| 2026-04-26 20:25 | 45.46029 | -73.75292 | 104 ft | 13 kts | 298° |
| 2026-04-26 20:25 | 45.46106 | -73.75366 | 102 ft | 12 kts | 1° |
| 2026-04-26 20:25 | 45.46141 | -73.75448 | 101 ft | 12 kts | 263° |
| 2026-04-26 20:26 | 45.46135 | -73.75572 | 101 ft | 13 kts | 267° |
| 2026-04-26 20:26 | 45.46131 | -73.75713 | 101 ft | 15 kts | 268° |
| 2026-04-26 20:26 | 45.46126 | -73.75868 | 101 ft | 16 kts | 267° |
| 2026-04-26 20:26 | 45.46120 | -73.76036 | 101 ft | 18 kts | 268° |
| 2026-04-26 20:27 | 45.46079 | -73.76165 | 100 ft | 15 kts | 226° |
| 2026-04-26 20:27 | 45.46006 | -73.76276 | 101 ft | 11 kts | 233° |
| 2026-04-26 20:27 | 45.46014 | -73.76363 | 102 ft | 8 kts | 315° |
| 2026-04-26 20:27 | 45.46018 | -73.76368 | 102 ft | 0 kts | 316° |
| 2026-04-26 20:28 | 45.46019 | -73.76369 | 102 ft | 1 kts | 316° |
| 2026-04-26 20:29 | 45.46039 | -73.76397 | 103 ft | 8 kts | 316° |
| 2026-04-26 20:29 | 45.46103 | -73.76434 | 104 ft | 11 kts | 346° |
| 2026-04-26 20:29 | 45.46176 | -73.76414 | 103 ft | 7 kts | 39° |
| 2026-04-26 20:29 | 45.46179 | -73.76411 | 103 ft | 0 kts | 40° |
| 2026-04-26 20:30 | 45.46227 | -73.76349 | 104 ft | 32 kts | 43° |
| 2026-04-26 20:30 | 45.46556 | -73.75917 | 107 ft | 94 kts | 43° |
| 2026-04-26 20:30 | 45.47162 | -73.75125 | 113 ft | 140 kts | 43° |
| 2026-04-26 20:30 | 45.47964 | -73.74078 | 261 ft | 163 kts | 43° |
| 2026-04-26 20:31 | 45.48795 | -73.73007 | 839 ft | 160 kts | 42° |
| 2026-04-26 20:31 | 45.49633 | -73.71933 | 1381 ft | 164 kts | 42° |
| 2026-04-26 20:31 | 45.50487 | -73.70816 | 1863 ft | 169 kts | 43° |
| 2026-04-26 20:31 | 45.51101 | -73.69999 | 2213 ft | 171 kts | 43° |
| 2026-04-26 20:32 | 45.51784 | -73.69087 | 2531 ft | 180 kts | 43° |
| 2026-04-26 20:32 | 45.52745 | -73.67796 | 2812 ft | 201 kts | 43° |
| 2026-04-26 20:32 | 45.53810 | -73.66357 | 3209 ft | 219 kts | 43° |
| 2026-04-26 20:32 | 45.54925 | -73.64842 | 3936 ft | 223 kts | 43° |
| 2026-04-26 20:33 | 45.56088 | -73.63261 | 4455 ft | 240 kts | 39° |
| 2026-04-26 20:33 | 45.57592 | -73.62096 | 4914 ft | 255 kts | 12° |
| 2026-04-26 20:33 | 45.59341 | -73.62128 | 5640 ft | 259 kts | 344° |
| 2026-04-26 20:33 | 45.60926 | -73.63399 | 6456 ft | 263 kts | 316° |
| 2026-04-26 20:34 | 45.61912 | -73.65584 | 7177 ft | 272 kts | 290° |
| 2026-04-26 20:34 | 45.62182 | -73.68289 | 7885 ft | 280 kts | 272° |
| 2026-04-26 20:34 | 45.62199 | -73.71092 | 8641 ft | 284 kts | 272° |
| 2026-04-26 20:34 | 45.62328 | -73.73936 | 9381 ft | 289 kts | 277° |
| 2026-04-26 20:35 | 45.62621 | -73.76789 | 10119 ft | 293 kts | 281° |
| 2026-04-26 20:35 | 45.63036 | -73.79728 | 10463 ft | 312 kts | 283° |
| 2026-04-26 20:35 | 45.63542 | -73.82850 | 10664 ft | 333 kts | 284° |
| 2026-04-26 20:35 | 45.64097 | -73.86130 | 11106 ft | 343 kts | 284° |
| 2026-04-26 20:36 | 45.64662 | -73.89461 | 11792 ft | 346 kts | 284° |
| 2026-04-26 20:36 | 45.65229 | -73.92823 | 12457 ft | 350 kts | 284° |
| 2026-04-26 20:36 | 45.65605 | -73.95069 | 12893 ft | 352 kts | 284° |
| 2026-04-26 20:36 | 45.66368 | -73.99657 | 13794 ft | 357 kts | 284° |
| 2026-04-26 20:37 | 45.66944 | -74.03133 | 14414 ft | 361 kts | 284° |
| 2026-04-26 20:37 | 45.67521 | -74.06628 | 15031 ft | 363 kts | 284° |
| 2026-04-26 20:37 | 45.68103 | -74.10157 | 15641 ft | 366 kts | 284° |
| 2026-04-26 20:37 | 45.68687 | -74.13711 | 16240 ft | 369 kts | 284° |
| 2026-04-26 20:38 | 45.69277 | -74.17301 | 16826 ft | 371 kts | 284° |
| 2026-04-26 20:38 | 45.69866 | -74.20905 | 17458 ft | 373 kts | 284° |
| 2026-04-26 20:38 | 45.70459 | -74.24534 | 18047 ft | 376 kts | 284° |
| 2026-04-26 20:38 | 45.71054 | -74.28185 | 18610 ft | 378 kts | 284° |
| 2026-04-26 20:39 | 45.71651 | -74.31857 | 19133 ft | 380 kts | 284° |
| 2026-04-26 20:39 | 45.72232 | -74.35551 | 19639 ft | 382 kts | 282° |
| 2026-04-26 20:39 | 45.72569 | -74.39331 | 20153 ft | 384 kts | 277° |
| 2026-04-26 20:39 | 45.72826 | -74.43149 | 20654 ft | 386 kts | 277° |
| 2026-04-26 20:40 | 45.73094 | -74.46989 | 21147 ft | 389 kts | 277° |
| 2026-04-26 20:40 | 45.73365 | -74.50862 | 21644 ft | 391 kts | 277° |
| 2026-04-26 20:40 | 45.73635 | -74.54741 | 22124 ft | 393 kts | 278° |
| 2026-04-26 20:40 | 45.73901 | -74.58594 | 22594 ft | 395 kts | 278° |
| 2026-04-26 20:41 | 45.74174 | -74.62569 | 23073 ft | 398 kts | 278° |
| 2026-04-26 20:41 | 45.74443 | -74.66519 | 23535 ft | 400 kts | 278° |
| 2026-04-26 20:41 | 45.74713 | -74.70493 | 23963 ft | 402 kts | 278° |
| 2026-04-26 20:41 | 45.74980 | -74.74439 | 24334 ft | 404 kts | 278° |
| 2026-04-26 20:42 | 45.75251 | -74.78464 | 24717 ft | 406 kts | 278° |
| 2026-04-26 20:42 | 45.75521 | -74.82505 | 25093 ft | 408 kts | 278° |
| 2026-04-26 20:42 | 45.75859 | -74.86548 | 25452 ft | 409 kts | 282° |
| 2026-04-26 20:42 | 45.76461 | -74.90531 | 25801 ft | 410 kts | 284° |
| 2026-04-26 20:43 | 45.77086 | -74.94527 | 26158 ft | 412 kts | 284° |
| 2026-04-26 20:43 | 45.77709 | -74.98550 | 26502 ft | 415 kts | 284° |
| 2026-04-26 20:43 | 45.78331 | -75.02591 | 26849 ft | 416 kts | 284° |
| 2026-04-26 20:43 | 45.78952 | -75.06646 | 27186 ft | 418 kts | 284° |
| 2026-04-26 20:44 | 45.79575 | -75.10726 | 27519 ft | 419 kts | 284° |
| 2026-04-26 20:44 | 45.80197 | -75.14812 | 27867 ft | 421 kts | 284° |
| 2026-04-26 20:44 | 45.80820 | -75.18921 | 28200 ft | 422 kts | 284° |
| 2026-04-26 20:44 | 45.81445 | -75.23045 | 28520 ft | 423 kts | 284° |
| 2026-04-26 20:45 | 45.82069 | -75.27171 | 28827 ft | 425 kts | 285° |
| 2026-04-26 20:45 | 45.82694 | -75.31313 | 29136 ft | 426 kts | 285° |
| 2026-04-26 20:45 | 45.83319 | -75.35466 | 29440 ft | 426 kts | 285° |
| 2026-04-26 20:45 | 45.83934 | -75.39571 | 29716 ft | 427 kts | 285° |
| 2026-04-26 20:46 | 45.84559 | -75.43742 | 30014 ft | 428 kts | 285° |
| 2026-04-26 20:46 | 45.85183 | -75.47923 | 30282 ft | 429 kts | 285° |
| 2026-04-26 20:46 | 45.85808 | -75.52120 | 30529 ft | 430 kts | 285° |
| 2026-04-26 20:46 | 45.86431 | -75.56322 | 30772 ft | 431 kts | 285° |
| 2026-04-26 20:47 | 45.87055 | -75.60538 | 31011 ft | 432 kts | 285° |
| 2026-04-26 20:47 | 45.87476 | -75.63389 | 31161 ft | 433 kts | 285° |
| 2026-04-26 20:47 | 45.88301 | -75.68994 | 31524 ft | 433 kts | 285° |
| 2026-04-26 20:47 | 45.88922 | -75.73222 | 31855 ft | 432 kts | 285° |
| 2026-04-26 20:48 | 45.89538 | -75.77435 | 32152 ft | 431 kts | 285° |
| 2026-04-26 20:48 | 45.90151 | -75.81638 | 32456 ft | 430 kts | 285° |
| 2026-04-26 20:48 | 45.90764 | -75.85846 | 32749 ft | 429 kts | 285° |
| 2026-04-26 20:48 | 45.91372 | -75.90028 | 33013 ft | 428 kts | 285° |
| 2026-04-26 20:49 | 45.91978 | -75.94209 | 33263 ft | 428 kts | 285° |
| 2026-04-26 20:49 | 45.92657 | -75.98365 | 33532 ft | 425 kts | 290° |
| 2026-04-26 20:49 | 45.93698 | -76.02303 | 33778 ft | 421 kts | 298° |
| 2026-04-26 20:49 | 45.95108 | -76.05971 | 34004 ft | 418 kts | 305° |
| 2026-04-26 20:50 | 45.96827 | -76.09320 | 34219 ft | 416 kts | 310° |
| 2026-04-26 20:50 | 45.98617 | -76.12595 | 34396 ft | 416 kts | 309° |
| 2026-04-26 20:50 | 46.00395 | -76.15876 | 34534 ft | 416 kts | 309° |
| 2026-04-26 20:50 | 46.02173 | -76.19164 | 34700 ft | 417 kts | 309° |
| 2026-04-26 20:51 | 46.03933 | -76.22417 | 34860 ft | 417 kts | 309° |
| 2026-04-26 20:51 | 46.05714 | -76.25709 | 35015 ft | 417 kts | 309° |
| 2026-04-26 20:51 | 46.07496 | -76.29003 | 35151 ft | 417 kts | 309° |
| 2026-04-26 20:51 | 46.09281 | -76.32304 | 35286 ft | 418 kts | 309° |
| 2026-04-26 20:52 | 46.11064 | -76.35606 | 35419 ft | 418 kts | 309° |
| 2026-04-26 20:52 | 46.12850 | -76.38916 | 35539 ft | 418 kts | 308° |
| 2026-04-26 20:52 | 46.14636 | -76.42233 | 35666 ft | 419 kts | 308° |
| 2026-04-26 20:52 | 46.16420 | -76.45554 | 35801 ft | 419 kts | 308° |
| 2026-04-26 20:53 | 46.18203 | -76.48876 | 35928 ft | 419 kts | 308° |
| 2026-04-26 20:53 | 46.19988 | -76.52206 | 36040 ft | 419 kts | 308° |
| 2026-04-26 20:53 | 46.21769 | -76.55533 | 36147 ft | 419 kts | 308° |
| 2026-04-26 20:54 | 46.25336 | -76.62212 | 36203 ft | 419 kts | 308° |
| 2026-04-26 20:54 | 46.28893 | -76.68886 | 36206 ft | 419 kts | 308° |
| 2026-04-26 20:55 | 46.32444 | -76.75566 | 36210 ft | 419 kts | 308° |
| 2026-04-26 20:55 | 46.35989 | -76.82248 | 36207 ft | 419 kts | 308° |
| 2026-04-26 20:56 | 46.39531 | -76.88942 | 36211 ft | 419 kts | 307° |
| 2026-04-26 20:56 | 46.43067 | -76.95640 | 36213 ft | 418 kts | 307° |
| 2026-04-26 20:57 | 46.46596 | -77.02342 | 36215 ft | 418 kts | 307° |
| 2026-04-26 20:57 | 46.50127 | -77.09063 | 36217 ft | 418 kts | 307° |
| 2026-04-26 20:58 | 46.53652 | -77.15790 | 36219 ft | 419 kts | 307° |
| 2026-04-26 20:58 | 46.57172 | -77.22523 | 36221 ft | 418 kts | 307° |
| 2026-04-26 20:59 | 46.60666 | -77.29223 | 36221 ft | 418 kts | 307° |
| 2026-04-26 20:59 | 46.64175 | -77.35968 | 36224 ft | 418 kts | 307° |
| 2026-04-26 21:00 | 46.67684 | -77.42728 | 36230 ft | 419 kts | 307° |
| 2026-04-26 21:00 | 46.71196 | -77.49511 | 36229 ft | 419 kts | 306° |
| 2026-04-26 21:01 | 46.74699 | -77.56293 | 36231 ft | 419 kts | 306° |
| 2026-04-26 21:01 | 46.78205 | -77.63099 | 36234 ft | 418 kts | 306° |
| 2026-04-26 21:02 | 46.81701 | -77.69899 | 36233 ft | 419 kts | 306° |
| 2026-04-26 21:02 | 46.85193 | -77.76711 | 36238 ft | 419 kts | 306° |
| 2026-04-26 21:03 | 46.88686 | -77.83540 | 36236 ft | 419 kts | 306° |
| 2026-04-26 21:03 | 46.92177 | -77.90383 | 36238 ft | 420 kts | 306° |
| 2026-04-26 21:04 | 46.95666 | -77.97239 | 36238 ft | 420 kts | 306° |
| 2026-04-26 21:04 | 46.99127 | -78.04057 | 36239 ft | 420 kts | 306° |
| 2026-04-26 21:05 | 47.02611 | -78.10937 | 36237 ft | 420 kts | 306° |
| 2026-04-26 21:05 | 47.06087 | -78.17817 | 36243 ft | 420 kts | 306° |
| 2026-04-26 21:06 | 47.09562 | -78.24715 | 36242 ft | 420 kts | 306° |
| 2026-04-26 21:06 | 47.13033 | -78.31620 | 36240 ft | 420 kts | 305° |
| 2026-04-26 21:07 | 47.16496 | -78.38529 | 36240 ft | 420 kts | 305° |
| 2026-04-26 21:07 | 47.19961 | -78.45456 | 36244 ft | 420 kts | 305° |
| 2026-04-26 21:08 | 47.23418 | -78.52385 | 36244 ft | 420 kts | 305° |
| 2026-04-26 21:08 | 47.26853 | -78.59289 | 36242 ft | 420 kts | 305° |
| 2026-04-26 21:09 | 47.30302 | -78.66239 | 36246 ft | 420 kts | 305° |
| 2026-04-26 21:09 | 47.33744 | -78.73190 | 36242 ft | 420 kts | 305° |
| 2026-04-26 21:10 | 47.37187 | -78.80162 | 36242 ft | 420 kts | 305° |
| 2026-04-26 21:10 | 47.40617 | -78.87124 | 36242 ft | 419 kts | 305° |
| 2026-04-26 21:11 | 47.43465 | -78.92920 | 36241 ft | 420 kts | 304° |
| 2026-04-26 21:11 | 47.46891 | -78.99907 | 36244 ft | 419 kts | 304° |
| 2026-04-26 21:12 | 47.50871 | -79.08047 | 36244 ft | 419 kts | 304° |
| 2026-04-26 21:12 | 47.53708 | -79.13864 | 36241 ft | 419 kts | 304° |
| 2026-04-26 21:13 | 47.57117 | -79.20868 | 36239 ft | 419 kts | 304° |
| 2026-04-26 21:13 | 47.60523 | -79.27886 | 36241 ft | 419 kts | 304° |
| 2026-04-26 21:14 | 47.63922 | -79.34908 | 36239 ft | 419 kts | 304° |
| 2026-04-26 21:14 | 47.67315 | -79.41934 | 36228 ft | 419 kts | 304° |
| 2026-04-26 21:15 | 47.70713 | -79.48987 | 36224 ft | 419 kts | 304° |
| 2026-04-26 21:15 | 47.74080 | -79.55997 | 36217 ft | 419 kts | 304° |
| 2026-04-26 21:16 | 47.77463 | -79.63056 | 36213 ft | 419 kts | 303° |
| 2026-04-26 21:16 | 47.80836 | -79.70113 | 36210 ft | 419 kts | 303° |
| 2026-04-26 21:17 | 47.84204 | -79.77178 | 36210 ft | 419 kts | 303° |
| 2026-04-26 21:17 | 47.87569 | -79.84256 | 36209 ft | 419 kts | 303° |
| 2026-04-26 21:18 | 47.90930 | -79.91342 | 36212 ft | 418 kts | 303° |
| 2026-04-26 21:18 | 47.94287 | -79.98440 | 36212 ft | 418 kts | 303° |
| 2026-04-26 21:19 | 47.97639 | -80.05545 | 36211 ft | 419 kts | 303° |
| 2026-04-26 21:19 | 48.00961 | -80.12604 | 36210 ft | 418 kts | 303° |
| 2026-04-26 21:20 | 48.04298 | -80.19714 | 36213 ft | 418 kts | 303° |
| 2026-04-26 21:20 | 48.07635 | -80.26841 | 36212 ft | 418 kts | 302° |
| 2026-04-26 21:21 | 48.10961 | -80.33965 | 36214 ft | 417 kts | 302° |
| 2026-04-26 21:21 | 48.14278 | -80.41088 | 36215 ft | 417 kts | 302° |
| 2026-04-26 21:22 | 48.17593 | -80.48225 | 36213 ft | 417 kts | 302° |
| 2026-04-26 21:22 | 48.20897 | -80.55358 | 36212 ft | 416 kts | 302° |
| 2026-04-26 21:23 | 48.25840 | -80.66064 | 36215 ft | 416 kts | 302° |
| 2026-04-26 21:23 | 48.29125 | -80.73201 | 36216 ft | 415 kts | 302° |
| 2026-04-26 21:24 | 48.32384 | -80.80301 | 36224 ft | 416 kts | 302° |
| 2026-04-26 21:24 | 48.35662 | -80.87462 | 36222 ft | 415 kts | 302° |
| 2026-04-26 21:25 | 48.38930 | -80.94621 | 36222 ft | 415 kts | 301° |
| 2026-04-26 21:25 | 48.42189 | -81.01776 | 36218 ft | 414 kts | 301° |
| 2026-04-26 21:26 | 48.45443 | -81.08942 | 36215 ft | 414 kts | 301° |
| 2026-04-26 21:26 | 48.48692 | -81.16114 | 36208 ft | 414 kts | 301° |
| 2026-04-26 21:27 | 48.51934 | -81.23290 | 36203 ft | 414 kts | 301° |
| 2026-04-26 21:27 | 48.55173 | -81.30480 | 36201 ft | 414 kts | 301° |
| 2026-04-26 21:28 | 48.58404 | -81.37668 | 36203 ft | 414 kts | 301° |
| 2026-04-26 21:28 | 48.61633 | -81.44874 | 36205 ft | 414 kts | 301° |
| 2026-04-26 21:29 | 48.64858 | -81.52087 | 36206 ft | 414 kts | 301° |
| 2026-04-26 21:29 | 48.68081 | -81.59318 | 36212 ft | 415 kts | 301° |
| 2026-04-26 21:30 | 48.71303 | -81.66565 | 36221 ft | 415 kts | 301° |
| 2026-04-26 21:30 | 48.74502 | -81.73780 | 36223 ft | 415 kts | 301° |
| 2026-04-26 21:31 | 48.77720 | -81.81056 | 36227 ft | 416 kts | 301° |
| 2026-04-26 21:31 | 48.80940 | -81.88357 | 36232 ft | 416 kts | 301° |
| 2026-04-26 21:32 | 48.84151 | -81.95658 | 36223 ft | 416 kts | 300° |
| 2026-04-26 21:32 | 48.87358 | -82.02971 | 36223 ft | 416 kts | 300° |
| 2026-04-26 21:33 | 48.90562 | -82.10297 | 36231 ft | 416 kts | 300° |
| 2026-04-26 21:33 | 48.93761 | -82.17630 | 36232 ft | 416 kts | 300° |
| 2026-04-26 21:34 | 48.96955 | -82.24972 | 36230 ft | 416 kts | 300° |
| 2026-04-26 21:34 | 49.00137 | -82.32306 | 36228 ft | 415 kts | 300° |
| 2026-04-26 21:35 | 49.03308 | -82.39636 | 36228 ft | 414 kts | 300° |
| 2026-04-26 21:35 | 49.06467 | -82.46958 | 36226 ft | 413 kts | 300° |
| 2026-04-26 21:36 | 49.09086 | -82.53044 | 36227 ft | 412 kts | 300° |
| 2026-04-26 21:36 | 49.12759 | -82.61595 | 36228 ft | 411 kts | 300° |
| 2026-04-26 21:37 | 49.15873 | -82.68857 | 36224 ft | 411 kts | 300° |
| 2026-04-26 21:37 | 49.18997 | -82.76162 | 36229 ft | 410 kts | 300° |
| 2026-04-26 21:38 | 49.22111 | -82.83463 | 36230 ft | 409 kts | 300° |
| 2026-04-26 21:38 | 49.24823 | -82.91061 | 36231 ft | 405 kts | 292° |
| 2026-04-26 21:39 | 49.26812 | -82.99104 | 36236 ft | 404 kts | 288° |
| 2026-04-26 21:39 | 49.28718 | -83.07175 | 36234 ft | 403 kts | 288° |
| 2026-04-26 21:40 | 49.30635 | -83.15240 | 36232 ft | 402 kts | 288° |
| 2026-04-26 21:40 | 49.32536 | -83.23285 | 36231 ft | 401 kts | 288° |
| 2026-04-26 21:41 | 49.34429 | -83.31337 | 36232 ft | 401 kts | 288° |
| 2026-04-26 21:41 | 49.36314 | -83.39381 | 36231 ft | 400 kts | 288° |
| 2026-04-26 21:42 | 49.38175 | -83.47359 | 36231 ft | 400 kts | 288° |
| 2026-04-26 21:42 | 49.40040 | -83.55399 | 36232 ft | 399 kts | 288° |
| 2026-04-26 21:43 | 49.41894 | -83.63426 | 36228 ft | 399 kts | 287° |
| 2026-04-26 21:43 | 49.43741 | -83.71459 | 36227 ft | 398 kts | 287° |
| 2026-04-26 21:44 | 49.45580 | -83.79483 | 36230 ft | 398 kts | 287° |
| 2026-04-26 21:44 | 49.47411 | -83.87504 | 36225 ft | 397 kts | 287° |
| 2026-04-26 21:45 | 49.49234 | -83.95521 | 36225 ft | 397 kts | 287° |
| 2026-04-26 21:45 | 49.51050 | -84.03537 | 36224 ft | 396 kts | 287° |
| 2026-04-26 21:46 | 49.52849 | -84.11505 | 36233 ft | 396 kts | 287° |
| 2026-04-26 21:46 | 49.54649 | -84.19513 | 36223 ft | 396 kts | 287° |
| 2026-04-26 21:47 | 49.56444 | -84.27527 | 36223 ft | 395 kts | 287° |
| 2026-04-26 21:47 | 49.58233 | -84.35542 | 36226 ft | 395 kts | 287° |
| 2026-04-26 21:48 | 49.60013 | -84.43551 | 36235 ft | 395 kts | 286° |
| 2026-04-26 21:48 | 49.61787 | -84.51559 | 36234 ft | 394 kts | 286° |
| 2026-04-26 21:49 | 49.63556 | -84.59575 | 36221 ft | 395 kts | 286° |
| 2026-04-26 21:49 | 49.65318 | -84.67593 | 36218 ft | 394 kts | 286° |
| 2026-04-26 21:50 | 49.66777 | -84.74256 | 36224 ft | 394 kts | 286° |
| 2026-04-26 21:50 | 49.68810 | -84.83578 | 36229 ft | 394 kts | 286° |
| 2026-04-26 21:51 | 49.70554 | -84.91605 | 36230 ft | 394 kts | 285° |
| 2026-04-26 21:51 | 49.72291 | -84.99635 | 36228 ft | 394 kts | 285° |
| 2026-04-26 21:52 | 49.74026 | -85.07684 | 36228 ft | 394 kts | 285° |
| 2026-04-26 21:52 | 49.75754 | -85.15735 | 36230 ft | 394 kts | 285° |
| 2026-04-26 21:53 | 49.77478 | -85.23796 | 36224 ft | 394 kts | 285° |
| 2026-04-26 21:53 | 49.79195 | -85.31859 | 36229 ft | 395 kts | 285° |
| 2026-04-26 21:54 | 49.80908 | -85.39936 | 36226 ft | 395 kts | 285° |
| 2026-04-26 21:54 | 49.82615 | -85.48018 | 36225 ft | 395 kts | 285° |
| 2026-04-26 21:55 | 49.84305 | -85.56049 | 36225 ft | 395 kts | 285° |
| 2026-04-26 21:55 | 49.86001 | -85.64140 | 36226 ft | 394 kts | 285° |
| 2026-04-26 21:56 | 49.87690 | -85.72229 | 36226 ft | 394 kts | 285° |
| 2026-04-26 21:56 | 49.89372 | -85.80319 | 36226 ft | 394 kts | 285° |
| 2026-04-26 21:57 | 49.91050 | -85.88425 | 36226 ft | 394 kts | 285° |
| 2026-04-26 21:57 | 49.92722 | -85.96528 | 36227 ft | 394 kts | 285° |
| 2026-04-26 21:58 | 49.94386 | -86.04630 | 36222 ft | 394 kts | 285° |
| 2026-04-26 21:58 | 49.95765 | -86.11372 | 36219 ft | 394 kts | 284° |
| 2026-04-26 21:59 | 49.97421 | -86.19493 | 36222 ft | 394 kts | 284° |
| 2026-04-26 21:59 | 49.99073 | -86.27631 | 36220 ft | 394 kts | 284° |
| 2026-04-26 22:00 | 50.00717 | -86.35762 | 36220 ft | 395 kts | 284° |
| 2026-04-26 22:00 | 50.02357 | -86.43905 | 36224 ft | 394 kts | 284° |
| 2026-04-26 22:01 | 50.03992 | -86.52061 | 36223 ft | 395 kts | 284° |
| 2026-04-26 22:01 | 50.05618 | -86.60204 | 36226 ft | 394 kts | 284° |
| 2026-04-26 22:02 | 50.07243 | -86.68381 | 36227 ft | 395 kts | 284° |
| 2026-04-26 22:02 | 50.08864 | -86.76570 | 36221 ft | 397 kts | 284° |
| 2026-04-26 22:03 | 50.10484 | -86.84782 | 36224 ft | 396 kts | 284° |
| 2026-04-26 22:03 | 50.12099 | -86.93012 | 36223 ft | 398 kts | 284° |
| 2026-04-26 22:04 | 50.13702 | -87.01208 | 36222 ft | 398 kts | 284° |
| 2026-04-26 22:04 | 50.15313 | -87.09488 | 36225 ft | 399 kts | 284° |
| 2026-04-26 22:05 | 50.16922 | -87.17787 | 36227 ft | 400 kts | 284° |
| 2026-04-26 22:05 | 50.18526 | -87.26105 | 36222 ft | 401 kts | 284° |
| 2026-04-26 22:06 | 50.20129 | -87.34444 | 36223 ft | 401 kts | 283° |
| 2026-04-26 22:06 | 50.21728 | -87.42806 | 36224 ft | 402 kts | 283° |
| 2026-04-26 22:07 | 50.23322 | -87.51175 | 36222 ft | 402 kts | 283° |
| 2026-04-26 22:07 | 50.24903 | -87.59515 | 36223 ft | 403 kts | 283° |
| 2026-04-26 22:08 | 50.26491 | -87.67929 | 36224 ft | 403 kts | 283° |
| 2026-04-26 22:08 | 50.28073 | -87.76352 | 36227 ft | 404 kts | 283° |
| 2026-04-26 22:09 | 50.29651 | -87.84789 | 36233 ft | 404 kts | 283° |
| 2026-04-26 22:09 | 50.31222 | -87.93222 | 36231 ft | 405 kts | 283° |
| 2026-04-26 22:10 | 50.32790 | -88.01683 | 36228 ft | 405 kts | 283° |
| 2026-04-26 22:10 | 50.34344 | -88.10108 | 36228 ft | 406 kts | 283° |
| 2026-04-26 22:11 | 50.35908 | -88.18622 | 36228 ft | 406 kts | 283° |
| 2026-04-26 22:11 | 50.37466 | -88.27146 | 36226 ft | 407 kts | 283° |
| 2026-04-26 22:12 | 50.39019 | -88.35682 | 36223 ft | 407 kts | 283° |
| 2026-04-26 22:12 | 50.40569 | -88.44240 | 36207 ft | 408 kts | 283° |
| 2026-04-26 22:13 | 50.42112 | -88.52801 | 36196 ft | 408 kts | 283° |
| 2026-04-26 22:13 | 50.43642 | -88.61328 | 36184 ft | 409 kts | 283° |
| 2026-04-26 22:14 | 50.45176 | -88.69922 | 36172 ft | 409 kts | 282° |
| 2026-04-26 22:14 | 50.46707 | -88.78538 | 36169 ft | 410 kts | 282° |
| 2026-04-26 22:15 | 50.48233 | -88.87167 | 36170 ft | 410 kts | 282° |
| 2026-04-26 22:15 | 50.49757 | -88.95825 | 36165 ft | 411 kts | 282° |
| 2026-04-26 22:16 | 50.51274 | -89.04489 | 36163 ft | 411 kts | 282° |
| 2026-04-26 22:16 | 50.52789 | -89.13180 | 36163 ft | 413 kts | 282° |
| 2026-04-26 22:17 | 50.54299 | -89.21888 | 36163 ft | 413 kts | 282° |
| 2026-04-26 22:17 | 50.55805 | -89.30619 | 36166 ft | 414 kts | 282° |
| 2026-04-26 22:18 | 50.57297 | -89.39308 | 36159 ft | 414 kts | 282° |
| 2026-04-26 22:18 | 50.58795 | -89.48074 | 36143 ft | 415 kts | 282° |
| 2026-04-26 22:19 | 50.60287 | -89.56852 | 36149 ft | 415 kts | 282° |
| 2026-04-26 22:19 | 50.61774 | -89.65645 | 36135 ft | 416 kts | 282° |
| 2026-04-26 22:20 | 50.63257 | -89.74455 | 36135 ft | 416 kts | 281° |
| 2026-04-26 22:20 | 50.64735 | -89.83286 | 36142 ft | 417 kts | 281° |
| 2026-04-26 22:21 | 50.66207 | -89.92124 | 36135 ft | 417 kts | 281° |
| 2026-04-26 22:21 | 50.67674 | -90.00976 | 36144 ft | 418 kts | 281° |
| 2026-04-26 22:22 | 50.69144 | -90.09899 | 36140 ft | 421 kts | 281° |
| 2026-04-26 22:22 | 50.70601 | -90.18782 | 36137 ft | 421 kts | 281° |
| 2026-04-26 22:23 | 50.72060 | -90.27730 | 36135 ft | 421 kts | 281° |
| 2026-04-26 22:23 | 50.73515 | -90.36701 | 36135 ft | 422 kts | 281° |
| 2026-04-26 22:24 | 50.74965 | -90.45684 | 36132 ft | 422 kts | 281° |
| 2026-04-26 22:24 | 50.76411 | -90.54697 | 36129 ft | 423 kts | 281° |
| 2026-04-26 22:25 | 50.77851 | -90.63713 | 36127 ft | 423 kts | 281° |
| 2026-04-26 22:25 | 50.79276 | -90.72691 | 36129 ft | 424 kts | 281° |
| 2026-04-26 22:26 | 50.80705 | -90.81738 | 36129 ft | 424 kts | 280° |
| 2026-04-26 22:26 | 50.82129 | -90.90812 | 36126 ft | 425 kts | 280° |
| 2026-04-26 22:27 | 50.83545 | -90.99874 | 36128 ft | 425 kts | 280° |
| 2026-04-26 22:27 | 50.84957 | -91.08972 | 36129 ft | 426 kts | 280° |
| 2026-04-26 22:28 | 50.86362 | -91.18073 | 36120 ft | 426 kts | 280° |
| 2026-04-26 22:28 | 50.87754 | -91.27139 | 36131 ft | 427 kts | 280° |
| 2026-04-26 22:29 | 50.89151 | -91.36290 | 36127 ft | 427 kts | 280° |
| 2026-04-26 22:29 | 50.90544 | -91.45462 | 36128 ft | 428 kts | 280° |
| 2026-04-26 22:30 | 50.91929 | -91.54645 | 36124 ft | 428 kts | 280° |
| 2026-04-26 22:30 | 50.93308 | -91.63834 | 36126 ft | 429 kts | 279° |
| 2026-04-26 22:31 | 50.94682 | -91.73042 | 36134 ft | 429 kts | 279° |
| 2026-04-26 22:31 | 50.96043 | -91.82218 | 36135 ft | 430 kts | 279° |
| 2026-04-26 22:32 | 50.97406 | -91.91464 | 36137 ft | 430 kts | 279° |
| 2026-04-26 22:32 | 50.98764 | -92.00734 | 36136 ft | 431 kts | 279° |
| 2026-04-26 22:33 | 51.00789 | -92.14653 | 36133 ft | 432 kts | 279° |
| 2026-04-26 22:34 | 51.02132 | -92.23957 | 36133 ft | 432 kts | 279° |
| 2026-04-26 22:34 | 51.03469 | -92.33277 | 36129 ft | 433 kts | 279° |
| 2026-04-26 22:35 | 51.04802 | -92.42626 | 36128 ft | 433 kts | 279° |
| 2026-04-26 22:35 | 51.06119 | -92.51918 | 36132 ft | 434 kts | 279° |
| 2026-04-26 22:36 | 51.07439 | -92.61289 | 36127 ft | 435 kts | 279° |
| 2026-04-26 22:36 | 51.08754 | -92.70686 | 36134 ft | 435 kts | 279° |
| 2026-04-26 22:37 | 51.10063 | -92.80092 | 36129 ft | 436 kts | 279° |
| 2026-04-26 22:37 | 51.11366 | -92.89521 | 36126 ft | 436 kts | 278° |
| 2026-04-26 22:38 | 51.12663 | -92.98970 | 36128 ft | 436 kts | 278° |
| 2026-04-26 22:38 | 51.13944 | -93.08359 | 36131 ft | 437 kts | 278° |
| 2026-04-26 22:39 | 51.15228 | -93.17827 | 36129 ft | 437 kts | 278° |
| 2026-04-26 22:39 | 51.16507 | -93.27296 | 36126 ft | 438 kts | 278° |
| 2026-04-26 22:40 | 51.17784 | -93.36788 | 36116 ft | 438 kts | 278° |
| 2026-04-26 22:40 | 51.19056 | -93.46298 | 36104 ft | 439 kts | 278° |
| 2026-04-26 22:41 | 51.20323 | -93.55825 | 36097 ft | 439 kts | 278° |
| 2026-04-26 22:41 | 51.21581 | -93.65359 | 36093 ft | 440 kts | 278° |
| 2026-04-26 22:42 | 51.22634 | -93.74964 | 36088 ft | 438 kts | 273° |
| 2026-04-26 22:42 | 51.23504 | -93.84599 | 36089 ft | 439 kts | 275° |
| 2026-04-26 22:43 | 51.24447 | -93.94229 | 36099 ft | 439 kts | 275° |
| 2026-04-26 22:43 | 51.25367 | -94.03805 | 36105 ft | 440 kts | 275° |
| 2026-04-26 22:44 | 51.26278 | -94.13465 | 36115 ft | 439 kts | 275° |
| 2026-04-26 22:44 | 51.27174 | -94.23108 | 36124 ft | 440 kts | 274° |
| 2026-04-26 22:45 | 51.28063 | -94.32788 | 36130 ft | 440 kts | 274° |
| 2026-04-26 22:45 | 51.28942 | -94.42470 | 36127 ft | 441 kts | 274° |
| 2026-04-26 22:46 | 51.29815 | -94.52175 | 36127 ft | 441 kts | 274° |
| 2026-04-26 22:46 | 51.30681 | -94.61890 | 36126 ft | 442 kts | 274° |
| 2026-04-26 22:47 | 51.31395 | -94.69973 | 36122 ft | 442 kts | 274° |
| 2026-04-26 22:47 | 51.32246 | -94.79696 | 36093 ft | 437 kts | 275° |
| 2026-04-26 22:47 | 51.32658 | -94.84431 | 36117 ft | 420 kts | 275° |
| 2026-04-26 22:48 | 51.33179 | -94.90418 | 36123 ft | 406 kts | 274° |
| 2026-04-26 22:48 | 51.33949 | -94.99443 | 36124 ft | 413 kts | 274° |
| 2026-04-26 22:49 | 51.34599 | -95.07123 | 36122 ft | 416 kts | 274° |
| 2026-04-26 22:49 | 51.35368 | -95.16227 | 36123 ft | 415 kts | 274° |
| 2026-04-26 22:50 | 51.36133 | -95.25390 | 36125 ft | 415 kts | 274° |
| 2026-04-26 22:50 | 51.36890 | -95.34548 | 36122 ft | 415 kts | 274° |
| 2026-04-26 22:51 | 51.37639 | -95.43705 | 36124 ft | 415 kts | 274° |
| 2026-04-26 22:51 | 51.38382 | -95.52858 | 36125 ft | 414 kts | 274° |
| 2026-04-26 22:52 | 51.39116 | -95.62004 | 36125 ft | 414 kts | 274° |
| 2026-04-26 22:52 | 51.39842 | -95.71147 | 36125 ft | 414 kts | 274° |
| 2026-04-26 22:53 | 51.40557 | -95.80237 | 36126 ft | 413 kts | 274° |
| 2026-04-26 22:53 | 51.41269 | -95.89373 | 36127 ft | 413 kts | 274° |
| 2026-04-26 22:54 | 51.41973 | -95.98513 | 36127 ft | 413 kts | 274° |
| 2026-04-26 22:54 | 51.42670 | -96.07648 | 36129 ft | 413 kts | 273° |
| 2026-04-26 22:55 | 51.43361 | -96.16801 | 36126 ft | 413 kts | 273° |
| 2026-04-26 22:55 | 51.44043 | -96.25947 | 36128 ft | 413 kts | 273° |
| 2026-04-26 22:56 | 51.44720 | -96.35101 | 36127 ft | 413 kts | 273° |
| 2026-04-26 22:56 | 51.45385 | -96.44205 | 36128 ft | 413 kts | 273° |
| 2026-04-26 22:57 | 51.46047 | -96.53366 | 36129 ft | 414 kts | 273° |
| 2026-04-26 22:57 | 51.46703 | -96.62547 | 36130 ft | 414 kts | 273° |
| 2026-04-26 22:58 | 51.47354 | -96.71756 | 36128 ft | 415 kts | 273° |
| 2026-04-26 22:58 | 51.47997 | -96.80956 | 36125 ft | 415 kts | 273° |
| 2026-04-26 22:59 | 51.48633 | -96.90160 | 36107 ft | 415 kts | 272° |
| 2026-04-26 22:59 | 51.49262 | -96.99376 | 36119 ft | 415 kts | 272° |
| 2026-04-26 23:00 | 51.49880 | -97.08535 | 36120 ft | 416 kts | 272° |
| 2026-04-26 23:00 | 51.50491 | -97.17702 | 36108 ft | 415 kts | 272° |
| 2026-04-26 23:02 | 51.50823 | -97.22728 | 36114 ft | 415 kts | 272° |
| 2026-04-26 23:03 | 51.51426 | -97.31945 | 36109 ft | 415 kts | 272° |
| 2026-04-26 23:03 | 51.52022 | -97.41164 | 36113 ft | 415 kts | 272° |
| 2026-04-26 23:04 | 51.52611 | -97.50385 | 36116 ft | 415 kts | 272° |
| 2026-04-26 23:04 | 51.53188 | -97.59553 | 36111 ft | 415 kts | 272° |
| 2026-04-26 23:05 | 51.53762 | -97.68770 | 36110 ft | 415 kts | 272° |
| 2026-04-26 23:05 | 51.54329 | -97.78003 | 36114 ft | 415 kts | 272° |
| 2026-04-26 23:06 | 51.54888 | -97.87224 | 36116 ft | 415 kts | 272° |
| 2026-04-26 23:06 | 51.55440 | -97.96453 | 36111 ft | 415 kts | 272° |
| 2026-04-26 23:07 | 51.55986 | -98.05693 | 36115 ft | 415 kts | 272° |
| 2026-04-26 23:07 | 51.56523 | -98.14931 | 36114 ft | 415 kts | 272° |
| 2026-04-26 23:08 | 51.57052 | -98.24131 | 36118 ft | 415 kts | 271° |
| 2026-04-26 23:08 | 51.57576 | -98.33379 | 36118 ft | 416 kts | 271° |
| 2026-04-26 23:09 | 51.58093 | -98.42644 | 36118 ft | 416 kts | 271° |
| 2026-04-26 23:09 | 51.58603 | -98.51916 | 36116 ft | 416 kts | 271° |
| 2026-04-26 23:10 | 51.59106 | -98.61198 | 36116 ft | 417 kts | 271° |
| 2026-04-26 23:10 | 51.59603 | -98.70493 | 36116 ft | 417 kts | 271° |
| 2026-04-26 23:11 | 51.60092 | -98.79793 | 36117 ft | 417 kts | 271° |
| 2026-04-26 23:11 | 51.60575 | -98.89099 | 36112 ft | 418 kts | 271° |
| 2026-04-26 23:12 | 51.61050 | -98.98415 | 36112 ft | 418 kts | 271° |
| 2026-04-26 23:12 | 51.61516 | -99.07684 | 36116 ft | 418 kts | 271° |
| 2026-04-26 23:13 | 51.61977 | -99.17017 | 36118 ft | 419 kts | 271° |
| 2026-04-26 23:13 | 51.62432 | -99.26370 | 36115 ft | 419 kts | 271° |
| 2026-04-26 23:14 | 51.62879 | -99.35726 | 36115 ft | 419 kts | 271° |
| 2026-04-26 23:14 | 51.63319 | -99.45090 | 36111 ft | 420 kts | 271° |
| 2026-04-26 23:15 | 51.63753 | -99.54469 | 36107 ft | 420 kts | 271° |
| 2026-04-26 23:15 | 51.64179 | -99.63853 | 36111 ft | 420 kts | 271° |
| 2026-04-26 23:16 | 51.64599 | -99.73260 | 36124 ft | 425 kts | 270° |
| 2026-04-26 23:16 | 51.65014 | -99.82791 | 36108 ft | 433 kts | 270° |
| 2026-04-26 23:17 | 51.65434 | -99.92569 | 36107 ft | 441 kts | 271° |
| 2026-04-26 23:17 | 51.65852 | -100.02503 | 36114 ft | 448 kts | 271° |
| 2026-04-26 23:18 | 51.66267 | -100.12511 | 36106 ft | 447 kts | 271° |
| 2026-04-26 23:18 | 51.66672 | -100.22524 | 36109 ft | 447 kts | 270° |
| 2026-04-26 23:19 | 51.67068 | -100.32521 | 36098 ft | 447 kts | 270° |
| 2026-04-26 23:19 | 51.67454 | -100.42512 | 36116 ft | 447 kts | 270° |
| 2026-04-26 23:20 | 51.67832 | -100.52499 | 36108 ft | 447 kts | 270° |
| 2026-04-26 23:20 | 51.68201 | -100.62484 | 36112 ft | 446 kts | 270° |
| 2026-04-26 23:21 | 51.68562 | -100.72468 | 36118 ft | 446 kts | 270° |
| 2026-04-26 23:21 | 51.68913 | -100.82441 | 36119 ft | 445 kts | 270° |
| 2026-04-26 23:22 | 51.69256 | -100.92402 | 36125 ft | 445 kts | 270° |
| 2026-04-26 23:22 | 51.69589 | -101.02313 | 36128 ft | 445 kts | 270° |
| 2026-04-26 23:23 | 51.69916 | -101.12279 | 36129 ft | 445 kts | 270° |
| 2026-04-26 23:23 | 51.70240 | -101.22247 | 36131 ft | 445 kts | 270° |
| 2026-04-26 23:24 | 51.70557 | -101.32212 | 36134 ft | 445 kts | 270° |
| 2026-04-26 23:24 | 51.70826 | -101.42182 | 36137 ft | 444 kts | 268° |
| 2026-04-26 23:25 | 51.70754 | -101.52118 | 36136 ft | 444 kts | 267° |
| 2026-04-26 23:25 | 51.70739 | -101.62014 | 36138 ft | 443 kts | 268° |
| 2026-04-26 23:26 | 51.70722 | -101.71958 | 36138 ft | 443 kts | 268° |
| 2026-04-26 23:26 | 51.70687 | -101.81905 | 36136 ft | 443 kts | 268° |
| 2026-04-26 23:27 | 51.70641 | -101.91845 | 36139 ft | 443 kts | 268° |
| 2026-04-26 23:27 | 51.70583 | -102.01782 | 36140 ft | 443 kts | 268° |
| 2026-04-26 23:28 | 51.70513 | -102.11707 | 36141 ft | 443 kts | 267° |
| 2026-04-26 23:28 | 51.70434 | -102.21643 | 36137 ft | 443 kts | 267° |
| 2026-04-26 23:29 | 51.70346 | -102.31566 | 36137 ft | 443 kts | 267° |
| 2026-04-26 23:29 | 51.70251 | -102.41425 | 36138 ft | 442 kts | 267° |
| 2026-04-26 23:30 | 51.70147 | -102.51345 | 36138 ft | 442 kts | 267° |
| 2026-04-26 23:30 | 51.70034 | -102.61267 | 36137 ft | 442 kts | 267° |
| 2026-04-26 23:31 | 51.69913 | -102.71170 | 36138 ft | 442 kts | 267° |
| 2026-04-26 23:31 | 51.69784 | -102.81068 | 36138 ft | 442 kts | 267° |
| 2026-04-26 23:32 | 51.69646 | -102.90973 | 36137 ft | 442 kts | 267° |
| 2026-04-26 23:32 | 51.69502 | -103.00807 | 36141 ft | 441 kts | 267° |
| 2026-04-26 23:33 | 51.69348 | -103.10691 | 36143 ft | 441 kts | 267° |
| 2026-04-26 23:33 | 51.69186 | -103.20586 | 36138 ft | 441 kts | 267° |
| 2026-04-26 23:34 | 51.69015 | -103.30465 | 36140 ft | 441 kts | 267° |
| 2026-04-26 23:34 | 51.68837 | -103.40347 | 36138 ft | 441 kts | 267° |
| 2026-04-26 23:35 | 51.68650 | -103.50228 | 36140 ft | 441 kts | 267° |
| 2026-04-26 23:35 | 51.68455 | -103.60097 | 36141 ft | 440 kts | 267° |
| 2026-04-26 23:36 | 51.68286 | -103.68306 | 36143 ft | 441 kts | 267° |
| 2026-04-26 23:36 | 51.68076 | -103.78170 | 36142 ft | 440 kts | 267° |
| 2026-04-26 23:37 | 51.67858 | -103.88028 | 36144 ft | 440 kts | 267° |
| 2026-04-26 23:37 | 51.67631 | -103.97895 | 36143 ft | 440 kts | 267° |
| 2026-04-26 23:38 | 51.67397 | -104.07749 | 36141 ft | 440 kts | 266° |
| 2026-04-26 23:38 | 51.67154 | -104.17598 | 36141 ft | 440 kts | 266° |
| 2026-04-26 23:39 | 51.66903 | -104.27436 | 36140 ft | 440 kts | 266° |
| 2026-04-26 23:39 | 51.66643 | -104.37285 | 36144 ft | 439 kts | 266° |
| 2026-04-26 23:40 | 51.66376 | -104.47122 | 36144 ft | 439 kts | 266° |
| 2026-04-26 23:40 | 51.66101 | -104.56946 | 36143 ft | 439 kts | 266° |
| 2026-04-26 23:41 | 51.65820 | -104.66702 | 36111 ft | 437 kts | 266° |
| 2026-04-26 23:41 | 51.65535 | -104.76344 | 36140 ft | 429 kts | 266° |
| 2026-04-26 23:42 | 51.65240 | -104.85987 | 36136 ft | 432 kts | 266° |
| 2026-04-26 23:42 | 51.64783 | -105.00459 | 36142 ft | 431 kts | 266° |
| 2026-04-26 23:43 | 51.64469 | -105.10114 | 36136 ft | 432 kts | 266° |
| 2026-04-26 23:43 | 51.64147 | -105.19766 | 36135 ft | 432 kts | 266° |
| 2026-04-26 23:44 | 51.63816 | -105.29424 | 36133 ft | 432 kts | 266° |
| 2026-04-26 23:44 | 51.63478 | -105.39086 | 36135 ft | 432 kts | 266° |
| 2026-04-26 23:45 | 51.63133 | -105.48701 | 36142 ft | 433 kts | 266° |
| 2026-04-26 23:45 | 51.62778 | -105.58375 | 36135 ft | 433 kts | 266° |
| 2026-04-26 23:46 | 51.62415 | -105.68054 | 36139 ft | 434 kts | 266° |
| 2026-04-26 23:46 | 51.62044 | -105.77736 | 36144 ft | 434 kts | 266° |
| 2026-04-26 23:47 | 51.61664 | -105.87445 | 36149 ft | 434 kts | 266° |
| 2026-04-26 23:47 | 51.61276 | -105.97144 | 36141 ft | 434 kts | 266° |
| 2026-04-26 23:48 | 51.60882 | -106.06790 | 36148 ft | 435 kts | 266° |
| 2026-04-26 23:48 | 51.60478 | -106.16499 | 36148 ft | 435 kts | 266° |
| 2026-04-26 23:49 | 51.60065 | -106.26212 | 36157 ft | 435 kts | 266° |
| 2026-04-26 23:49 | 51.59644 | -106.35940 | 36150 ft | 436 kts | 266° |
| 2026-04-26 23:50 | 51.59215 | -106.45661 | 36160 ft | 436 kts | 266° |
| 2026-04-26 23:50 | 51.58779 | -106.55335 | 36158 ft | 436 kts | 265° |
| 2026-04-26 23:51 | 51.58334 | -106.65066 | 36154 ft | 436 kts | 265° |
| 2026-04-26 23:51 | 51.57879 | -106.74808 | 36155 ft | 437 kts | 265° |
| 2026-04-26 23:52 | 51.57417 | -106.84535 | 36160 ft | 437 kts | 265° |
| 2026-04-26 23:52 | 51.56945 | -106.94294 | 36160 ft | 437 kts | 265° |
| 2026-04-26 23:53 | 51.56466 | -107.04044 | 36161 ft | 438 kts | 265° |
| 2026-04-26 23:53 | 51.55978 | -107.13804 | 36164 ft | 438 kts | 265° |
| 2026-04-26 23:54 | 51.55481 | -107.23569 | 36161 ft | 438 kts | 265° |
| 2026-04-26 23:54 | 51.54980 | -107.33276 | 36166 ft | 439 kts | 265° |
| 2026-04-26 23:55 | 51.54467 | -107.43041 | 36161 ft | 439 kts | 265° |
| 2026-04-26 23:55 | 51.53945 | -107.52817 | 36170 ft | 439 kts | 265° |
| 2026-04-26 23:56 | 51.53415 | -107.62598 | 36163 ft | 440 kts | 265° |
| 2026-04-26 23:56 | 51.52876 | -107.72388 | 36168 ft | 440 kts | 265° |
| 2026-04-26 23:57 | 51.52329 | -107.82167 | 36168 ft | 440 kts | 265° |
| 2026-04-26 23:57 | 51.51773 | -107.91962 | 36167 ft | 440 kts | 265° |
| 2026-04-26 23:58 | 51.51210 | -108.01743 | 36172 ft | 441 kts | 265° |
| 2026-04-26 23:58 | 51.50637 | -108.11555 | 36175 ft | 441 kts | 265° |
| 2026-04-26 23:59 | 51.50055 | -108.21357 | 36171 ft | 441 kts | 265° |
| 2026-04-26 23:59 | 51.49566 | -108.29511 | 36175 ft | 442 kts | 265° |
| 2026-04-27 00:00 | 51.49065 | -108.37745 | 36174 ft | 442 kts | 265° |
| 2026-04-27 00:00 | 51.48461 | -108.47561 | 36183 ft | 442 kts | 264° |
| 2026-04-27 00:01 | 51.47847 | -108.57392 | 36183 ft | 443 kts | 264° |
| 2026-04-27 00:01 | 51.47225 | -108.67221 | 36171 ft | 443 kts | 264° |
| 2026-04-27 00:02 | 51.46595 | -108.77050 | 36154 ft | 443 kts | 264° |
| 2026-04-27 00:02 | 51.45955 | -108.86898 | 36136 ft | 444 kts | 264° |
| 2026-04-27 00:03 | 51.45308 | -108.96734 | 36121 ft | 444 kts | 264° |
| 2026-04-27 00:03 | 51.44655 | -109.06523 | 36104 ft | 444 kts | 264° |
| 2026-04-27 00:04 | 51.43990 | -109.16369 | 36100 ft | 445 kts | 264° |
| 2026-04-27 00:04 | 51.43315 | -109.26235 | 36101 ft | 445 kts | 264° |
| 2026-04-27 00:05 | 51.42632 | -109.36097 | 36119 ft | 446 kts | 264° |
| 2026-04-27 00:05 | 51.41940 | -109.45967 | 36143 ft | 446 kts | 264° |
| 2026-04-27 00:06 | 51.41240 | -109.55840 | 36167 ft | 446 kts | 264° |
| 2026-04-27 00:06 | 51.40530 | -109.65715 | 36190 ft | 446 kts | 264° |
| 2026-04-27 00:07 | 51.39813 | -109.75587 | 36209 ft | 446 kts | 264° |
| 2026-04-27 00:07 | 51.39086 | -109.85471 | 36213 ft | 447 kts | 264° |
| 2026-04-27 00:08 | 51.38355 | -109.95295 | 36216 ft | 447 kts | 264° |
| 2026-04-27 00:08 | 51.37611 | -110.05173 | 36219 ft | 447 kts | 264° |
| 2026-04-27 00:09 | 51.36859 | -110.15052 | 36222 ft | 447 kts | 263° |
| 2026-04-27 00:09 | 51.36098 | -110.24931 | 36223 ft | 447 kts | 263° |
| 2026-04-27 00:10 | 51.35328 | -110.34817 | 36227 ft | 448 kts | 263° |
| 2026-04-27 00:10 | 51.34668 | -110.43199 | 36227 ft | 448 kts | 263° |
| 2026-04-27 00:11 | 51.33886 | -110.53077 | 36229 ft | 448 kts | 263° |
| 2026-04-27 00:11 | 51.33099 | -110.62954 | 36232 ft | 448 kts | 263° |
| 2026-04-27 00:12 | 51.32305 | -110.72840 | 36232 ft | 448 kts | 263° |
| 2026-04-27 00:12 | 51.31502 | -110.82723 | 36233 ft | 448 kts | 263° |
| 2026-04-27 00:13 | 51.31261 | -110.92626 | 36234 ft | 447 kts | 277° |
| 2026-04-27 00:13 | 51.32070 | -111.02497 | 36236 ft | 448 kts | 278° |
| 2026-04-27 00:14 | 51.32887 | -111.12364 | 36239 ft | 448 kts | 278° |
| 2026-04-27 00:14 | 51.33663 | -111.22243 | 36162 ft | 448 kts | 277° |
| 2026-04-27 00:15 | 51.34044 | -111.27189 | 35930 ft | 448 kts | 277° |
| 2026-04-27 00:15 | 51.34421 | -111.32122 | 35692 ft | 446 kts | 277° |
| 2026-04-27 00:15 | 51.34791 | -111.36996 | 35463 ft | 446 kts | 277° |
| 2026-04-27 00:15 | 51.35168 | -111.41988 | 35228 ft | 446 kts | 277° |
| 2026-04-27 00:16 | 51.35539 | -111.46918 | 34997 ft | 446 kts | 277° |
| 2026-04-27 00:16 | 51.35907 | -111.51843 | 34771 ft | 446 kts | 277° |
| 2026-04-27 00:16 | 51.36269 | -111.56708 | 34552 ft | 446 kts | 277° |
| 2026-04-27 00:16 | 51.36632 | -111.61630 | 34327 ft | 445 kts | 277° |
| 2026-04-27 00:17 | 51.36994 | -111.66558 | 34068 ft | 445 kts | 277° |
| 2026-04-27 00:17 | 51.37353 | -111.71476 | 33797 ft | 444 kts | 277° |
| 2026-04-27 00:17 | 51.37709 | -111.76380 | 33525 ft | 443 kts | 277° |
| 2026-04-27 00:17 | 51.38062 | -111.81277 | 33258 ft | 443 kts | 278° |
| 2026-04-27 00:18 | 51.38413 | -111.86175 | 32963 ft | 443 kts | 278° |
| 2026-04-27 00:18 | 51.38764 | -111.91087 | 32356 ft | 445 kts | 278° |
| 2026-04-27 00:18 | 51.39112 | -111.96006 | 31639 ft | 445 kts | 278° |
| 2026-04-27 00:18 | 51.39456 | -112.00898 | 31122 ft | 440 kts | 278° |
| 2026-04-27 00:19 | 51.39793 | -112.05729 | 30612 ft | 434 kts | 278° |
| 2026-04-27 00:19 | 51.40125 | -112.10518 | 30022 ft | 429 kts | 278° |
| 2026-04-27 00:19 | 51.40451 | -112.15236 | 29514 ft | 422 kts | 278° |
| 2026-04-27 00:19 | 51.40769 | -112.19865 | 29018 ft | 415 kts | 278° |
| 2026-04-27 00:20 | 51.41079 | -112.24397 | 28509 ft | 415 kts | 278° |
| 2026-04-27 00:20 | 51.41397 | -112.29057 | 27979 ft | 415 kts | 278° |
| 2026-04-27 00:20 | 51.41706 | -112.33632 | 27471 ft | 412 kts | 278° |
| 2026-04-27 00:20 | 51.42010 | -112.38166 | 26965 ft | 407 kts | 279° |
| 2026-04-27 00:21 | 51.42304 | -112.42589 | 26449 ft | 403 kts | 279° |
| 2026-04-27 00:21 | 51.42599 | -112.47030 | 25939 ft | 400 kts | 279° |
| 2026-04-27 00:21 | 51.42891 | -112.51454 | 25444 ft | 398 kts | 279° |
| 2026-04-27 00:21 | 51.43180 | -112.55856 | 24946 ft | 395 kts | 279° |
| 2026-04-27 00:22 | 51.43465 | -112.60224 | 24448 ft | 392 kts | 279° |
| 2026-04-27 00:22 | 51.43747 | -112.64574 | 23934 ft | 390 kts | 279° |
| 2026-04-27 00:22 | 51.44024 | -112.68871 | 23434 ft | 385 kts | 279° |
| 2026-04-27 00:22 | 51.44295 | -112.73104 | 22957 ft | 379 kts | 279° |
| 2026-04-27 00:23 | 51.44561 | -112.77272 | 22493 ft | 373 kts | 279° |
| 2026-04-27 00:23 | 51.44821 | -112.81381 | 22025 ft | 368 kts | 279° |
| 2026-04-27 00:23 | 51.45074 | -112.85376 | 21573 ft | 363 kts | 279° |
| 2026-04-27 00:23 | 51.45325 | -112.89376 | 21120 ft | 358 kts | 279° |
| 2026-04-27 00:24 | 51.45571 | -112.93323 | 20671 ft | 354 kts | 279° |
| 2026-04-27 00:24 | 51.45814 | -112.97228 | 20229 ft | 350 kts | 278° |
| 2026-04-27 00:24 | 51.45976 | -112.99844 | 19935 ft | 348 kts | 278° |
| 2026-04-27 00:24 | 51.46289 | -113.04917 | 19346 ft | 344 kts | 278° |
| 2026-04-27 00:25 | 51.46522 | -113.08714 | 18916 ft | 341 kts | 278° |
| 2026-04-27 00:25 | 51.46752 | -113.12482 | 18479 ft | 338 kts | 278° |
| 2026-04-27 00:25 | 51.46978 | -113.16217 | 18010 ft | 335 kts | 278° |
| 2026-04-27 00:25 | 51.47210 | -113.20022 | 17584 ft | 356 kts | 278° |
| 2026-04-27 00:26 | 51.47318 | -113.22755 | 17266 ft | 370 kts | 270° |
| 2026-04-27 00:26 | 51.46861 | -113.26807 | 16801 ft | 380 kts | 253° |
| 2026-04-27 00:26 | 51.45618 | -113.30567 | 16312 ft | 384 kts | 236° |
| 2026-04-27 00:26 | 51.43963 | -113.33859 | 15831 ft | 373 kts | 232° |
| 2026-04-27 00:27 | 51.42278 | -113.36939 | 15355 ft | 361 kts | 231° |
| 2026-04-27 00:27 | 51.40648 | -113.39912 | 14912 ft | 353 kts | 231° |
| 2026-04-27 00:27 | 51.39056 | -113.42872 | 14445 ft | 349 kts | 232° |
| 2026-04-27 00:27 | 51.37495 | -113.45824 | 13994 ft | 345 kts | 232° |
| 2026-04-27 00:28 | 51.35960 | -113.48752 | 13525 ft | 341 kts | 232° |
| 2026-04-27 00:28 | 51.34448 | -113.51647 | 13096 ft | 336 kts | 233° |
| 2026-04-27 00:28 | 51.32963 | -113.54491 | 12680 ft | 331 kts | 233° |
| 2026-04-27 00:28 | 51.31498 | -113.57296 | 12239 ft | 326 kts | 233° |
| 2026-04-27 00:29 | 51.30055 | -113.60056 | 11813 ft | 322 kts | 233° |
| 2026-04-27 00:29 | 51.28630 | -113.62777 | 11426 ft | 316 kts | 233° |
| 2026-04-27 00:29 | 51.27250 | -113.65405 | 11250 ft | 300 kts | 233° |
| 2026-04-27 00:29 | 51.25945 | -113.67888 | 10978 ft | 286 kts | 233° |
| 2026-04-27 00:30 | 51.24675 | -113.70310 | 10507 ft | 282 kts | 233° |
| 2026-04-27 00:30 | 51.23421 | -113.72705 | 10391 ft | 284 kts | 233° |
| 2026-04-27 00:30 | 51.22151 | -113.75128 | 10247 ft | 284 kts | 233° |
| 2026-04-27 00:30 | 51.20886 | -113.77536 | 10112 ft | 282 kts | 233° |
| 2026-04-27 00:31 | 51.19640 | -113.79903 | 9902 ft | 283 kts | 233° |
| 2026-04-27 00:31 | 51.18371 | -113.82313 | 9490 ft | 285 kts | 232° |
| 2026-04-27 00:31 | 51.16835 | -113.84297 | 9085 ft | 287 kts | 207° |
| 2026-04-27 00:31 | 51.14906 | -113.85045 | 8726 ft | 286 kts | 184° |
| 2026-04-27 00:32 | 51.12922 | -113.85081 | 8362 ft | 283 kts | 180° |
| 2026-04-27 00:32 | 51.10969 | -113.85001 | 8149 ft | 276 kts | 179° |
| 2026-04-27 00:32 | 51.09052 | -113.84922 | 8060 ft | 271 kts | 179° |
| 2026-04-27 00:32 | 51.07213 | -113.84875 | 8027 ft | 256 kts | 180° |
| 2026-04-27 00:33 | 51.05468 | -113.84852 | 7933 ft | 249 kts | 180° |
| 2026-04-27 00:33 | 51.03720 | -113.84851 | 7675 ft | 250 kts | 181° |
| 2026-04-27 00:33 | 51.01991 | -113.84860 | 7420 ft | 247 kts | 180° |
| 2026-04-27 00:33 | 51.00286 | -113.84872 | 7167 ft | 244 kts | 180° |
| 2026-04-27 00:34 | 50.98593 | -113.84886 | 6920 ft | 243 kts | 180° |
| 2026-04-27 00:34 | 50.96906 | -113.84898 | 6667 ft | 241 kts | 180° |
| 2026-04-27 00:34 | 50.95284 | -113.85126 | 6402 ft | 236 kts | 198° |
| 2026-04-27 00:34 | 50.93951 | -113.86508 | 6162 ft | 227 kts | 232° |
| 2026-04-27 00:35 | 50.93342 | -113.88733 | 6089 ft | 225 kts | 263° |
| 2026-04-27 00:35 | 50.93257 | -113.91243 | 6078 ft | 228 kts | 272° |
| 2026-04-27 00:35 | 50.93321 | -113.93756 | 6076 ft | 228 kts | 273° |
| 2026-04-27 00:35 | 50.93395 | -113.96268 | 6071 ft | 228 kts | 274° |
| 2026-04-27 00:36 | 50.93576 | -113.98757 | 6063 ft | 227 kts | 291° |
| 2026-04-27 00:36 | 50.94495 | -114.00737 | 6066 ft | 225 kts | 326° |
| 2026-04-27 00:36 | 50.95912 | -114.01735 | 6056 ft | 223 kts | 348° |
| 2026-04-27 00:36 | 50.97420 | -114.02063 | 6045 ft | 213 kts | 358° |
| 2026-04-27 00:37 | 50.98896 | -114.02133 | 5930 ft | 213 kts | 1° |
| 2026-04-27 00:37 | 51.00381 | -114.02140 | 5606 ft | 213 kts | 1° |
| 2026-04-27 00:37 | 51.01866 | -114.02141 | 5293 ft | 212 kts | 1° |
| 2026-04-27 00:37 | 51.03311 | -114.02140 | 4981 ft | 202 kts | 1° |
| 2026-04-27 00:38 | 51.04660 | -114.02140 | 4737 ft | 184 kts | 1° |
| 2026-04-27 00:38 | 51.05863 | -114.02140 | 4367 ft | 164 kts | 2° |
| 2026-04-27 00:38 | 51.06939 | -114.02139 | 4092 ft | 146 kts | 2° |
| 2026-04-27 00:38 | 51.07904 | -114.02140 | 3894 ft | 133 kts | 2° |
| 2026-04-27 00:39 | 51.08893 | -114.02135 | 3738 ft | 144 kts | 2° |
| 2026-04-27 00:39 | 51.09865 | -114.02134 | 3578 ft | 135 kts | 2° |
| 2026-04-27 00:39 | 51.10713 | -114.02131 | 3558 ft | 99 kts | 360° |
| 2026-04-27 00:39 | 51.11207 | -114.02131 | 3561 ft | 46 kts | 359° |
| 2026-04-27 00:40 | 51.11299 | -114.02109 | 3561 ft | 6 kts | 56° |
| 2026-04-27 00:40 | 51.11280 | -114.02044 | 3559 ft | 9 kts | 140° |
| 2026-04-27 00:40 | 51.11216 | -114.01985 | 3561 ft | 12 kts | 148° |
| 2026-04-27 00:40 | 51.11178 | -114.01944 | 3559 ft | 13 kts | 137° |
| 2026-04-27 00:41 | 51.11160 | -114.01838 | 3560 ft | 0 kts | 85° |
| 2026-04-27 00:43 | 51.11160 | -114.01834 | 3560 ft | 1 kts | 85° |